sensor_id;sensor_type;location;lat;lon;timestamp;pressure;altitude;pressure_sealevel;temperature;humidity
34586;BME280;20816;50.950;11.108;2024-03-07T00:00:14;99242.22;;;4.15;100.00
34586;BME280;20816;50.950;11.108;2024-03-07T00:02:46;99247.41;;;4.15;100.00
34586;BME280;20816;50.950;11.108;2024-03-07T00:05:16;99243.13;;;4.15;100.00
34586;BME280;20816;50.950;11.108;2024-03-07T00:07:43;99244.09;;;4.24;100.00
34586;BME280;20816;50.950;11.108;2024-03-07T00:10:10;99243.25;;;4.25;100.00
34586;BME280;20816;50.950;11.108;2024-03-07T00:12:39;99245.00;;;4.29;100.00
34586;BME280;20816;50.950;11.108;2024-03-07T00:15:08;99247.59;;;4.26;100.00
34586;BME280;20816;50.950;11.108;2024-03-07T00:17:38;99245.88;;;4.29;100.00
34586;BME280;20816;50.950;11.108;2024-03-07T00:20:06;99239.00;;;4.33;100.00
34586;BME280;20816;50.950;11.108;2024-03-07T00:22:36;99237.31;;;4.38;100.00
34586;BME280;20816;50.950;11.108;2024-03-07T00:25:03;99243.38;;;4.37;100.00
34586;BME280;20816;50.950;11.108;2024-03-07T00:27:32;99239.91;;;4.35;100.00
34586;BME280;20816;50.950;11.108;2024-03-07T00:29:59;99240.00;;;4.41;100.00
34586;BME280;20816;50.950;11.108;2024-03-07T00:32:26;99235.66;;;4.40;100.00
34586;BME280;20816;50.950;11.108;2024-03-07T00:34:56;99241.69;;;4.39;100.00
34586;BME280;20816;50.950;11.108;2024-03-07T00:37:23;99232.13;;;4.39;100.00
34586;BME280;20816;50.950;11.108;2024-03-07T00:39:53;99236.47;;;4.39;100.00
34586;BME280;20816;50.950;11.108;2024-03-07T00:42:20;99235.47;;;4.28;100.00
34586;BME280;20816;50.950;11.108;2024-03-07T00:44:49;99232.94;;;4.34;100.00
34586;BME280;20816;50.950;11.108;2024-03-07T00:47:18;99241.72;;;4.42;100.00
34586;BME280;20816;50.950;11.108;2024-03-07T00:49:45;99239.00;;;4.33;100.00
34586;BME280;20816;50.950;11.108;2024-03-07T00:52:15;99230.34;;;4.32;100.00
34586;BME280;20816;50.950;11.108;2024-03-07T00:54:42;99229.50;;;4.35;100.00
34586;BME280;20816;50.950;11.108;2024-03-07T00:57:09;99227.84;;;4.40;100.00
34586;BME280;20816;50.950;11.108;2024-03-07T00:59:36;99228.63;;;4.34;100.00
34586;BME280;20816;50.950;11.108;2024-03-07T01:02:03;99224.31;;;4.38;100.00
34586;BME280;20816;50.950;11.108;2024-03-07T01:04:30;99220.03;;;4.40;100.00
34586;BME280;20816;50.950;11.108;2024-03-07T01:07:00;99219.97;;;4.38;100.00
34586;BME280;20816;50.950;11.108;2024-03-07T01:09:27;99223.50;;;4.42;100.00
34586;BME280;20816;50.950;11.108;2024-03-07T01:11:55;99207.00;;;4.40;100.00
34586;BME280;20816;50.950;11.108;2024-03-07T01:14:22;99211.38;;;4.44;100.00
34586;BME280;20816;50.950;11.108;2024-03-07T01:16:49;99212.22;;;4.40;100.00
34586;BME280;20816;50.950;11.108;2024-03-07T01:19:16;99212.16;;;4.35;100.00
34586;BME280;20816;50.950;11.108;2024-03-07T01:21:42;99210.50;;;4.40;100.00
34586;BME280;20816;50.950;11.108;2024-03-07T01:24:09;99208.94;;;4.56;100.00
34586;BME280;20816;50.950;11.108;2024-03-07T01:26:36;99206.28;;;4.52;100.00
34586;BME280;20816;50.950;11.108;2024-03-07T01:29:02;99205.41;;;4.49;100.00
34586;BME280;20816;50.950;11.108;2024-03-07T01:31:30;99208.03;;;4.54;100.00
34586;BME280;20816;50.950;11.108;2024-03-07T01:33:57;99221.00;;;4.49;99.90
34586;BME280;20816;50.950;11.108;2024-03-07T01:36:24;99208.91;;;4.55;100.00
34586;BME280;20816;50.950;11.108;2024-03-07T01:38:50;99210.63;;;4.51;100.00
34586;BME280;20816;50.950;11.108;2024-03-07T01:41:18;99200.22;;;4.54;99.12
34586;BME280;20816;50.950;11.108;2024-03-07T01:43:45;99211.56;;;4.58;99.17
34586;BME280;20816;50.950;11.108;2024-03-07T01:46:13;99208.00;;;4.49;99.32
34586;BME280;20816;50.950;11.108;2024-03-07T01:48:40;99203.66;;;4.50;99.69
34586;BME280;20816;50.950;11.108;2024-03-07T01:51:07;99202.81;;;4.51;99.41
34586;BME280;20816;50.950;11.108;2024-03-07T01:53:35;99199.31;;;4.49;99.90
34586;BME280;20816;50.950;11.108;2024-03-07T01:56:03;99204.53;;;4.49;99.88
34586;BME280;20816;50.950;11.108;2024-03-07T01:58:31;99202.03;;;4.60;99.37
34586;BME280;20816;50.950;11.108;2024-03-07T02:00:59;99205.38;;;4.48;100.00
34586;BME280;20816;50.950;11.108;2024-03-07T02:03:26;99194.88;;;4.40;100.00
34586;BME280;20816;50.950;11.108;2024-03-07T02:05:53;99196.53;;;4.34;100.00
34586;BME280;20816;50.950;11.108;2024-03-07T02:08:20;99193.91;;;4.34;100.00
34586;BME280;20816;50.950;11.108;2024-03-07T02:10:47;99191.34;;;4.37;100.00
34586;BME280;20816;50.950;11.108;2024-03-07T02:13:15;99193.94;;;4.35;100.00
34586;BME280;20816;50.950;11.108;2024-03-07T02:15:42;99186.13;;;4.34;100.00
34586;BME280;20816;50.950;11.108;2024-03-07T02:18:09;99185.25;;;4.35;100.00
34586;BME280;20816;50.950;11.108;2024-03-07T02:20:37;99186.00;;;4.25;100.00
34586;BME280;20816;50.950;11.108;2024-03-07T02:23:04;99186.88;;;4.25;100.00
34586;BME280;20816;50.950;11.108;2024-03-07T02:25:31;99183.50;;;4.34;100.00
34586;BME280;20816;50.950;11.108;2024-03-07T02:27:58;99180.91;;;4.34;100.00
34586;BME280;20816;50.950;11.108;2024-03-07T02:30:25;99173.03;;;4.31;100.00
34586;BME280;20816;50.950;11.108;2024-03-07T02:32:52;99179.22;;;4.39;100.00
34586;BME280;20816;50.950;11.108;2024-03-07T02:35:22;99179.19;;;4.36;100.00
34586;BME280;20816;50.950;11.108;2024-03-07T02:37:50;99172.25;;;4.38;100.00
34586;BME280;20816;50.950;11.108;2024-03-07T02:40:17;99171.38;;;4.34;100.00
34586;BME280;20816;50.950;11.108;2024-03-07T02:42:44;99161.81;;;4.33;100.00
34586;BME280;20816;50.950;11.108;2024-03-07T02:45:10;99163.56;;;4.33;100.00
34586;BME280;20816;50.950;11.108;2024-03-07T02:47:41;99163.50;;;4.30;100.00
34586;BME280;20816;50.950;11.108;2024-03-07T02:50:11;99166.16;;;4.34;100.00
34586;BME280;20816;50.950;11.108;2024-03-07T02:52:38;99155.75;;;4.34;100.00
34586;BME280;20816;50.950;11.108;2024-03-07T02:55:05;99160.84;;;4.25;100.00
34586;BME280;20816;50.950;11.108;2024-03-07T02:57:32;99159.22;;;4.33;100.00
34586;BME280;20816;50.950;11.108;2024-03-07T02:59:59;99159.22;;;4.32;100.00
34586;BME280;20816;50.950;11.108;2024-03-07T03:02:26;99169.63;;;4.32;100.00
34586;BME280;20816;50.950;11.108;2024-03-07T03:04:52;99161.84;;;4.35;100.00
34586;BME280;20816;50.950;11.108;2024-03-07T03:07:21;99167.97;;;4.40;100.00
34586;BME280;20816;50.950;11.108;2024-03-07T03:09:47;99174.09;;;4.45;100.00
34586;BME280;20816;50.950;11.108;2024-03-07T03:12:15;99164.47;;;4.39;100.00
34586;BME280;20816;50.950;11.108;2024-03-07T03:14:42;99164.50;;;4.41;100.00
34586;BME280;20816;50.950;11.108;2024-03-07T03:17:09;99161.09;;;4.46;100.00
34586;BME280;20816;50.950;11.108;2024-03-07T03:19:37;99152.50;;;4.54;100.00
34586;BME280;20816;50.950;11.108;2024-03-07T03:22:04;99167.06;;;4.39;100.00
34586;BME280;20816;50.950;11.108;2024-03-07T03:24:31;99166.28;;;4.45;100.00
34586;BME280;20816;50.950;11.108;2024-03-07T03:26:57;99161.94;;;4.45;100.00
34586;BME280;20816;50.950;11.108;2024-03-07T03:29:24;99160.28;;;4.52;100.00
34586;BME280;20816;50.950;11.108;2024-03-07T03:31:51;99157.59;;;4.44;100.00
34586;BME280;20816;50.950;11.108;2024-03-07T03:34:18;99158.56;;;4.54;100.00
34586;BME280;20816;50.950;11.108;2024-03-07T03:36:44;99158.56;;;4.51;100.00
34586;BME280;20816;50.950;11.108;2024-03-07T03:39:11;99153.34;;;4.51;100.00
34586;BME280;20816;50.950;11.108;2024-03-07T03:41:40;99157.59;;;4.44;100.00
34586;BME280;20816;50.950;11.108;2024-03-07T03:44:07;99157.63;;;4.47;100.00
34586;BME280;20816;50.950;11.108;2024-03-07T03:46:34;99159.41;;;4.48;100.00
34586;BME280;20816;50.950;11.108;2024-03-07T03:49:00;99170.59;;;4.43;100.00
34586;BME280;20816;50.950;11.108;2024-03-07T03:51:27;99159.50;;;4.56;100.00
34586;BME280;20816;50.950;11.108;2024-03-07T03:53:54;99157.75;;;4.57;100.00
34586;BME280;20816;50.950;11.108;2024-03-07T03:56:21;99168.19;;;4.60;100.00
34586;BME280;20816;50.950;11.108;2024-03-07T03:58:48;99162.09;;;4.58;100.00
34586;BME280;20816;50.950;11.108;2024-03-07T04:01:15;99163.84;;;4.60;100.00
34586;BME280;20816;50.950;11.108;2024-03-07T04:03:42;99159.63;;;4.71;100.00
34586;BME280;20816;50.950;11.108;2024-03-07T04:06:13;99168.78;;;4.36;100.00
34586;BME280;20816;50.950;11.108;2024-03-07T04:08:40;99164.44;;;4.35;100.00
34586;BME280;20816;50.950;11.108;2024-03-07T04:11:07;99161.84;;;4.35;100.00
34586;BME280;20816;50.950;11.108;2024-03-07T04:13:37;99162.78;;;4.40;100.00
34586;BME280;20816;50.950;11.108;2024-03-07T04:16:03;99160.97;;;4.37;100.00
34586;BME280;20816;50.950;11.108;2024-03-07T04:18:31;99160.97;;;4.37;100.00
34586;BME280;20816;50.950;11.108;2024-03-07T04:20:59;99164.47;;;4.39;100.00
34586;BME280;20816;50.950;11.108;2024-03-07T04:23:26;99170.41;;;4.28;100.00
34586;BME280;20816;50.950;11.108;2024-03-07T04:25:54;99163.47;;;4.25;100.00
34586;BME280;20816;50.950;11.108;2024-03-07T04:28:22;99160.00;;;4.28;100.00
34586;BME280;20816;50.950;11.108;2024-03-07T04:30:49;99164.34;;;4.27;100.00
34586;BME280;20816;50.950;11.108;2024-03-07T04:33:16;99165.22;;;4.28;100.00
34586;BME280;20816;50.950;11.108;2024-03-07T04:35:42;99157.44;;;4.31;100.00
34586;BME280;20816;50.950;11.108;2024-03-07T04:38:09;99154.88;;;4.34;100.00
34586;BME280;20816;50.950;11.108;2024-03-07T04:40:38;99147.97;;;4.36;100.00
34586;BME280;20816;50.950;11.108;2024-03-07T04:43:05;99154.88;;;4.34;100.00
34586;BME280;20816;50.950;11.108;2024-03-07T04:45:32;99154.03;;;4.36;100.00
34586;BME280;20816;50.950;11.108;2024-03-07T04:47:58;99147.88;;;4.30;100.00
34586;BME280;20816;50.950;11.108;2024-03-07T04:50:25;99159.16;;;4.29;100.00
34586;BME280;20816;50.950;11.108;2024-03-07T04:52:53;99159.13;;;4.27;100.00
34586;BME280;20816;50.950;11.108;2024-03-07T04:55:19;99153.16;;;4.33;100.00
34586;BME280;20816;50.950;11.108;2024-03-07T04:57:46;99149.78;;;4.43;100.00
34586;BME280;20816;50.950;11.108;2024-03-07T05:00:14;99156.63;;;4.33;100.00
34586;BME280;20816;50.950;11.108;2024-03-07T05:02:45;99153.16;;;4.33;100.00
34586;BME280;20816;50.950;11.108;2024-03-07T05:05:13;99156.59;;;4.32;100.00
34586;BME280;20816;50.950;11.108;2024-03-07T05:07:40;99161.81;;;4.32;100.00
34586;BME280;20816;50.950;11.108;2024-03-07T05:10:08;99154.78;;;4.25;100.00
34586;BME280;20816;50.950;11.108;2024-03-07T05:12:35;99156.53;;;4.26;100.00
34586;BME280;20816;50.950;11.108;2024-03-07T05:15:05;99156.47;;;4.22;100.00
34586;BME280;20816;50.950;11.108;2024-03-07T05:17:32;99157.34;;;4.23;100.00
34586;BME280;20816;50.950;11.108;2024-03-07T05:20:02;99158.25;;;4.24;100.00
34586;BME280;20816;50.950;11.108;2024-03-07T05:22:30;99163.34;;;4.17;100.00
34586;BME280;20816;50.950;11.108;2024-03-07T05:24:57;99163.34;;;4.17;100.00
34586;BME280;20816;50.950;11.108;2024-03-07T05:27:25;99165.88;;;4.13;100.00
34586;BME280;20816;50.950;11.108;2024-03-07T05:29:54;99160.63;;;4.08;100.00
34586;BME280;20816;50.950;11.108;2024-03-07T05:32:23;99155.44;;;4.08;100.00
34586;BME280;20816;50.950;11.108;2024-03-07T05:34:51;99152.78;;;4.05;100.00
34586;BME280;20816;50.950;11.108;2024-03-07T05:37:20;99165.00;;;4.12;100.00
34586;BME280;20816;50.950;11.108;2024-03-07T05:39:51;99158.91;;;4.09;100.00
34586;BME280;20816;50.950;11.108;2024-03-07T05:42:19;99158.03;;;4.08;100.00
34586;BME280;20816;50.950;11.108;2024-03-07T05:44:46;99158.94;;;4.12;100.00
34586;BME280;20816;50.950;11.108;2024-03-07T05:47:12;99164.09;;;4.07;100.00
34586;BME280;20816;50.950;11.108;2024-03-07T05:49:40;99155.47;;;4.13;100.00
34586;BME280;20816;50.950;11.108;2024-03-07T05:52:07;99167.59;;;4.09;100.00
34586;BME280;20816;50.950;11.108;2024-03-07T05:54:34;99159.78;;;4.09;100.00
34586;BME280;20816;50.950;11.108;2024-03-07T05:57:02;99163.16;;;4.04;100.00
34586;BME280;20816;50.950;11.108;2024-03-07T05:59:29;99157.97;;;4.05;100.00
34586;BME280;20816;50.950;11.108;2024-03-07T06:01:55;99168.47;;;4.11;100.00
34586;BME280;20816;50.950;11.108;2024-03-07T06:04:22;99161.63;;;4.16;100.00
34586;BME280;20816;50.950;11.108;2024-03-07T06:06:49;99167.69;;;4.17;100.00
34586;BME280;20816;50.950;11.108;2024-03-07T06:09:15;99169.34;;;4.13;100.00
34586;BME280;20816;50.950;11.108;2024-03-07T06:11:48;99169.34;;;4.12;100.00
34586;BME280;20816;50.950;11.108;2024-03-07T06:14:16;99173.69;;;4.11;100.00
34586;BME280;20816;50.950;11.108;2024-03-07T06:16:44;99169.34;;;4.12;100.00
34586;BME280;20816;50.950;11.108;2024-03-07T06:19:11;99168.47;;;4.11;100.00
34586;BME280;20816;50.950;11.108;2024-03-07T06:21:39;99170.28;;;4.15;100.00
34586;BME280;20816;50.950;11.108;2024-03-07T06:24:07;99165.00;;;4.12;100.00
34586;BME280;20816;50.950;11.108;2024-03-07T06:26:37;99163.28;;;4.11;100.00
34586;BME280;20816;50.950;11.108;2024-03-07T06:29:17;99163.28;;;4.11;100.00
34586;BME280;20816;50.950;11.108;2024-03-07T06:31:45;99168.53;;;4.16;100.00
34586;BME280;20816;50.950;11.108;2024-03-07T06:34:15;99171.94;;;4.10;100.00
34586;BME280;20816;50.950;11.108;2024-03-07T06:36:41;99174.53;;;4.10;100.00
34586;BME280;20816;50.950;11.108;2024-03-07T06:39:08;99165.09;;;4.18;100.00
34586;BME280;20816;50.950;11.108;2024-03-07T06:41:39;99165.13;;;4.21;100.00
34586;BME280;20816;50.950;11.108;2024-03-07T06:44:07;99163.41;;;4.22;100.00
34586;BME280;20816;50.950;11.108;2024-03-07T06:46:34;99166.03;;;4.24;100.00
34586;BME280;20816;50.950;11.108;2024-03-07T06:49:01;99175.63;;;4.28;100.00
34586;BME280;20816;50.950;11.108;2024-03-07T06:51:28;99169.63;;;4.33;100.00
34586;BME280;20816;50.950;11.108;2024-03-07T06:53:55;99173.91;;;4.30;100.00
34586;BME280;20816;50.950;11.108;2024-03-07T06:56:23;99163.47;;;4.27;100.00
34586;BME280;20816;50.950;11.108;2024-03-07T06:58:52;99166.97;;;4.29;100.00
34586;BME280;20816;50.950;11.108;2024-03-07T07:01:19;99166.88;;;4.22;100.00
34586;BME280;20816;50.950;11.108;2024-03-07T07:03:46;99178.22;;;4.29;100.00
34586;BME280;20816;50.950;11.108;2024-03-07T07:06:15;99176.47;;;4.25;100.00
34586;BME280;20816;50.950;11.108;2024-03-07T07:08:43;99173.09;;;4.32;100.00
34586;BME280;20816;50.950;11.108;2024-03-07T07:11:12;99165.34;;;4.38;100.00
34586;BME280;20816;50.950;11.108;2024-03-07T07:13:39;99171.47;;;4.43;100.00
34586;BME280;20816;50.950;11.108;2024-03-07T07:16:05;99161.97;;;4.47;100.00
34586;BME280;20816;50.950;11.108;2024-03-07T07:18:33;99167.22;;;4.50;100.00
34586;BME280;20816;50.950;11.108;2024-03-07T07:21:00;99175.91;;;4.52;100.00
34586;BME280;20816;50.950;11.108;2024-03-07T07:23:30;99168.94;;;4.48;100.00
34586;BME280;20816;50.950;11.108;2024-03-07T07:25:57;99162.09;;;4.56;100.00
34586;BME280;20816;50.950;11.108;2024-03-07T07:28:23;99160.41;;;4.61;100.00
34586;BME280;20816;50.950;11.108;2024-03-07T07:30:50;99158.66;;;4.60;100.00
34586;BME280;20816;50.950;11.108;2024-03-07T07:33:17;99168.31;;;4.72;100.00
34586;BME280;20816;50.950;11.108;2024-03-07T07:35:46;99160.47;;;4.67;100.00
34586;BME280;20816;50.950;11.108;2024-03-07T07:38:13;99169.16;;;4.69;100.00
34586;BME280;20816;50.950;11.108;2024-03-07T07:40:41;99163.94;;;4.66;100.00
34586;BME280;20816;50.950;11.108;2024-03-07T07:43:08;99151.09;;;4.83;100.00
34586;BME280;20816;50.950;11.108;2024-03-07T07:45:38;99151.06;;;4.82;100.00
34586;BME280;20816;50.950;11.108;2024-03-07T07:48:05;99156.44;;;4.98;100.00
34586;BME280;20816;50.950;11.108;2024-03-07T07:50:32;99149.56;;;5.05;100.00
34586;BME280;20816;50.950;11.108;2024-03-07T07:53:01;99144.38;;;5.06;100.00
34586;BME280;20816;50.950;11.108;2024-03-07T07:55:31;99161.69;;;5.01;100.00
34586;BME280;20816;50.950;11.108;2024-03-07T07:57:59;99153.13;;;5.18;100.00
34586;BME280;20816;50.950;11.108;2024-03-07T08:00:28;99156.59;;;5.17;100.00
34586;BME280;20816;50.950;11.108;2024-03-07T08:03:02;99151.47;;;5.29;100.00
34586;BME280;20816;50.950;11.108;2024-03-07T08:05:32;99155.78;;;5.22;100.00
34586;BME280;20816;50.950;11.108;2024-03-07T08:08:04;99150.66;;;5.31;100.00
34586;BME280;20816;50.950;11.108;2024-03-07T08:10:35;99153.22;;;5.27;100.00
34586;BME280;20816;50.950;11.108;2024-03-07T08:13:03;99154.16;;;5.37;100.00
34586;BME280;20816;50.950;11.108;2024-03-07T08:15:30;99149.84;;;5.39;100.00
34586;BME280;20816;50.950;11.108;2024-03-07T08:17:58;99154.13;;;5.30;100.00
34586;BME280;20816;50.950;11.108;2024-03-07T08:20:27;99150.66;;;5.34;100.00
34586;BME280;20816;50.950;11.108;2024-03-07T08:22:54;99150.72;;;5.44;100.00
34586;BME280;20816;50.950;11.108;2024-03-07T08:25:24;99152.56;;;5.54;100.00
34586;BME280;20816;50.950;11.108;2024-03-07T08:28:00;99154.28;;;5.53;100.00
34586;BME280;20816;50.950;11.108;2024-03-07T08:30:27;99147.31;;;5.48;100.00
34586;BME280;20816;50.950;11.108;2024-03-07T08:32:56;99156.81;;;5.43;100.00
34586;BME280;20816;50.950;11.108;2024-03-07T08:35:24;99142.03;;;5.42;100.00
34586;BME280;20816;50.950;11.108;2024-03-07T08:37:52;99148.94;;;5.33;100.00
34586;BME280;20816;50.950;11.108;2024-03-07T08:40:22;99160.19;;;5.29;100.00
34586;BME280;20816;50.950;11.108;2024-03-07T08:42:54;99151.53;;;5.33;100.00
34586;BME280;20816;50.950;11.108;2024-03-07T08:45:21;99162.69;;;5.14;100.00
34586;BME280;20816;50.950;11.108;2024-03-07T08:47:52;99159.28;;;5.27;100.00
34586;BME280;20816;50.950;11.108;2024-03-07T08:50:22;99156.81;;;5.43;100.00
34586;BME280;20816;50.950;11.108;2024-03-07T08:52:50;99150.72;;;5.44;100.00
34586;BME280;20816;50.950;11.108;2024-03-07T08:55:19;99150.78;;;5.48;100.00
34586;BME280;20816;50.950;11.108;2024-03-07T08:57:46;99156.97;;;5.66;100.00
34586;BME280;20816;50.950;11.108;2024-03-07T09:00:16;99153.59;;;5.82;100.00
34586;BME280;20816;50.950;11.108;2024-03-07T09:02:57;99148.41;;;5.83;100.00
34586;BME280;20816;50.950;11.108;2024-03-07T09:05:27;99155.34;;;5.81;100.00
34586;BME280;20816;50.950;11.108;2024-03-07T09:07:55;99147.59;;;5.90;100.00
34586;BME280;20816;50.950;11.108;2024-03-07T09:10:22;99147.53;;;5.81;100.00
34586;BME280;20816;50.950;11.108;2024-03-07T09:12:51;99144.16;;;5.95;100.00
34586;BME280;20816;50.950;11.108;2024-03-07T09:15:19;99138.13;;;6.03;100.00
34586;BME280;20816;50.950;11.108;2024-03-07T09:17:49;99139.09;;;6.31;100.00
34586;BME280;20816;50.950;11.108;2024-03-07T09:20:16;99135.66;;;6.35;100.00
34586;BME280;20816;50.950;11.108;2024-03-07T09:22:44;99133.19;;;7.02;98.26
34586;BME280;20816;50.950;11.108;2024-03-07T09:25:11;99134.94;;;7.02;96.22
34586;BME280;20816;50.950;11.108;2024-03-07T09:27:40;99131.44;;;7.35;92.43
34586;BME280;20816;50.950;11.108;2024-03-07T09:30:08;99128.81;;;7.23;94.61
34586;BME280;20816;50.950;11.108;2024-03-07T09:32:39;99134.88;;;6.84;96.16
34586;BME280;20816;50.950;11.108;2024-03-07T09:35:10;99143.47;;;6.41;93.71
34586;BME280;20816;50.950;11.108;2024-03-07T09:37:41;99129.69;;;6.85;94.68
34586;BME280;20816;50.950;11.108;2024-03-07T09:40:10;99130.59;;;7.42;88.13
34586;BME280;20816;50.950;11.108;2024-03-07T09:42:43;99131.38;;;7.93;85.26
34586;BME280;20816;50.950;11.108;2024-03-07T09:45:16;99123.59;;;7.59;83.89
34586;BME280;20816;50.950;11.108;2024-03-07T09:47:48;99127.00;;;7.98;85.12
34586;BME280;20816;50.950;11.108;2024-03-07T09:50:18;99127.75;;;8.32;83.83
34586;BME280;20816;50.950;11.108;2024-03-07T09:52:52;99120.75;;;8.34;81.67
34586;BME280;20816;50.950;11.108;2024-03-07T09:55:21;99120.06;;;7.82;80.98
34586;BME280;20816;50.950;11.108;2024-03-07T09:57:53;99128.75;;;7.87;77.54
34586;BME280;20816;50.950;11.108;2024-03-07T10:00:20;99139.16;;;8.14;75.38
34586;BME280;20816;50.950;11.108;2024-03-07T10:03:02;99117.31;;;8.12;74.29
34586;BME280;20816;50.950;11.108;2024-03-07T10:05:32;99119.88;;;8.34;76.01
34586;BME280;20816;50.950;11.108;2024-03-07T10:08:00;99104.13;;;8.49;71.77
34586;BME280;20816;50.950;11.108;2024-03-07T10:10:27;99114.66;;;8.40;72.74
34586;BME280;20816;50.950;11.108;2024-03-07T10:12:54;99110.28;;;8.39;72.91
34586;BME280;20816;50.950;11.108;2024-03-07T10:15:21;99101.19;;;8.93;70.42
34586;BME280;20816;50.950;11.108;2024-03-07T10:17:49;99109.09;;;8.92;68.70
34586;BME280;20816;50.950;11.108;2024-03-07T10:20:18;99110.28;;;8.39;67.59
34586;BME280;20816;50.950;11.108;2024-03-07T10:22:48;99108.75;;;7.62;68.59
34586;BME280;20816;50.950;11.108;2024-03-07T10:25:20;99114.88;;;7.45;70.21
34586;BME280;20816;50.950;11.108;2024-03-07T10:27:48;99113.16;;;7.29;73.36
34586;BME280;20816;50.950;11.108;2024-03-07T10:30:16;99114.00;;;7.31;72.92
34586;BME280;20816;50.950;11.108;2024-03-07T10:32:51;99120.13;;;7.13;74.12
34586;BME280;20816;50.950;11.108;2024-03-07T10:35:23;99114.91;;;7.12;72.60
34586;BME280;20816;50.950;11.108;2024-03-07T10:37:54;99123.59;;;6.92;72.50
34586;BME280;20816;50.950;11.108;2024-03-07T10:40:22;99109.63;;;6.72;74.01
34586;BME280;20816;50.950;11.108;2024-03-07T10:42:49;99109.63;;;6.69;76.48
34586;BME280;20816;50.950;11.108;2024-03-07T10:45:19;99108.72;;;6.52;79.17
34586;BME280;20816;50.950;11.108;2024-03-07T10:47:53;99121.72;;;6.36;80.50
34586;BME280;20816;50.950;11.108;2024-03-07T10:53:14;99113.94;;;6.59;78.62
34586;BME280;20816;50.950;11.108;2024-03-07T10:58:42;99113.09;;;6.74;75.76
34586;BME280;20816;50.950;11.108;2024-03-07T11:01:10;99107.91;;;7.38;72.44
34586;BME280;20816;50.950;11.108;2024-03-07T11:03:39;99113.13;;;6.98;74.41
34586;BME280;20816;50.950;11.108;2024-03-07T11:06:08;99115.75;;;6.86;73.51
34586;BME280;20816;50.950;11.108;2024-03-07T11:08:38;99111.31;;;6.59;73.39
34586;BME280;20816;50.950;11.108;2024-03-07T11:11:06;99118.22;;;6.31;75.31
34586;BME280;20816;50.950;11.108;2024-03-07T11:13:33;99112.19;;;6.44;75.08
34586;BME280;20816;50.950;11.108;2024-03-07T11:16:01;99111.31;;;6.59;74.56
34586;BME280;20816;50.950;11.108;2024-03-07T11:18:29;99108.66;;;6.32;74.89
34586;BME280;20816;50.950;11.108;2024-03-07T11:20:56;99102.59;;;6.45;74.59
34586;BME280;20816;50.950;11.108;2024-03-07T11:23:31;99111.25;;;6.32;72.30
34586;BME280;20816;50.950;11.108;2024-03-07T11:26:09;99117.34;;;6.28;72.05
34586;BME280;20816;50.950;11.108;2024-03-07T11:28:39;99113.97;;;6.65;72.84
34586;BME280;20816;50.950;11.108;2024-03-07T11:31:13;99127.94;;;6.77;69.98
34586;BME280;20816;50.950;11.108;2024-03-07T11:33:41;99113.16;;;7.01;68.93
34586;BME280;20816;50.950;11.108;2024-03-07T11:36:11;99110.47;;;6.60;68.52
34586;BME280;20816;50.950;11.108;2024-03-07T11:38:47;99118.19;;;6.19;69.49
34586;BME280;20816;50.950;11.108;2024-03-07T11:41:18;99114.69;;;6.11;69.42
34586;BME280;20816;50.950;11.108;2024-03-07T11:43:46;99112.91;;;6.10;70.43
34586;BME280;20816;50.950;11.108;2024-03-07T11:46:13;99106.03;;;6.27;70.40
34586;BME280;20816;50.950;11.108;2024-03-07T11:48:44;99107.81;;;6.40;68.55
34586;BME280;20816;50.950;11.108;2024-03-07T11:51:17;99093.94;;;6.63;68.85
34586;BME280;20816;50.950;11.108;2024-03-07T11:53:44;99087.88;;;7.02;68.84
34586;BME280;20816;50.950;11.108;2024-03-07T11:56:14;99093.97;;;7.06;67.88
34586;BME280;20816;50.950;11.108;2024-03-07T11:58:46;99087.88;;;7.31;66.92
34586;BME280;20816;50.950;11.108;2024-03-07T12:01:21;99080.03;;;6.91;67.31
34586;BME280;20816;50.950;11.108;2024-03-07T12:03:52;99093.97;;;6.78;67.50
34586;BME280;20816;50.950;11.108;2024-03-07T12:06:22;99092.22;;;6.77;67.40
34586;BME280;20816;50.950;11.108;2024-03-07T12:08:49;99086.13;;;6.92;68.39
34586;BME280;20816;50.950;11.108;2024-03-07T12:11:16;99076.53;;;6.80;67.65
34586;BME280;20816;50.950;11.108;2024-03-07T12:13:43;99085.25;;;6.70;68.27
34586;BME280;20816;50.950;11.108;2024-03-07T12:16:10;99067.81;;;6.66;67.55
34586;BME280;20816;50.950;11.108;2024-03-07T12:18:37;99078.28;;;6.72;68.63
34586;BME280;20816;50.950;11.108;2024-03-07T12:21:04;99073.06;;;6.84;68.47
34586;BME280;20816;50.950;11.108;2024-03-07T12:23:38;99079.94;;;6.42;69.36
34586;BME280;20816;50.950;11.108;2024-03-07T12:26:07;99079.94;;;6.33;67.99
34586;BME280;20816;50.950;11.108;2024-03-07T12:28:34;99074.78;;;6.67;67.91
34586;BME280;20816;50.950;11.108;2024-03-07T12:31:02;99081.75;;;6.65;68.20
34586;BME280;20816;50.950;11.108;2024-03-07T12:33:30;99075.69;;;6.93;67.52
34586;BME280;20816;50.950;11.108;2024-03-07T12:36:02;99072.19;;;7.11;66.29
34586;BME280;20816;50.950;11.108;2024-03-07T12:38:36;99062.63;;;7.09;68.13
34586;BME280;20816;50.950;11.108;2024-03-07T12:41:08;99065.25;;;7.09;67.97
34586;BME280;20816;50.950;11.108;2024-03-07T12:43:42;99064.34;;;6.88;68.86
34586;BME280;20816;50.950;11.108;2024-03-07T12:46:12;99060.88;;;6.92;68.94
34586;BME280;20816;50.950;11.108;2024-03-07T12:48:43;99061.75;;;6.76;68.18
34586;BME280;20816;50.950;11.108;2024-03-07T12:51:13;99057.38;;;6.70;69.17
34586;BME280;20816;50.950;11.108;2024-03-07T12:53:46;99067.81;;;6.66;69.08
34586;BME280;20816;50.950;11.108;2024-03-07T12:56:13;99066.91;;;6.47;69.32
34586;BME280;20816;50.950;11.108;2024-03-07T12:58:46;99059.09;;;6.58;69.23
34586;BME280;20816;50.950;11.108;2024-03-07T13:01:13;99053.88;;;6.59;68.98
34586;BME280;20816;50.950;11.108;2024-03-07T13:03:40;99055.63;;;6.56;68.27